Time;durP1;ratioP1;P1;durP2;ratioP2;P2;SDS_P1;SDS_P2;PMS_P1;PMS_P2;Temp;Humidity;BMP_temperature;BMP_pressure;BME280_temperature;BME280_humidity;BME280_pressure;Samples;Min_cycle;Max_cycle;Signal;HPM_P1;HPM_P2
2021/06/12 04:53:56;;;;;;;6.25;4.65;;;18.10;96.90;;;;;;5345110;23;20048;-86
2021/06/12 04:56:22;;;;;;;7.80;5.45;;;18.10;97.20;;;;;;4923027;29;20127;-83
2021/06/12 04:58:51;;;;;;;7.40;5.43;;;18.20;97.50;;;;;;4929036;29;20505;-86
2021/06/12 05:01:18;;;;;;;8.43;6.00;;;18.20;97.50;;;;;;4936183;29;20501;-86
2021/06/12 05:03:45;;;;;;;7.07;5.50;;;18.20;97.50;;;;;;4929912;29;20059;-86
2021/06/12 05:06:11;;;;;;;8.02;5.57;;;18.20;97.50;;;;;;4937516;29;20107;-87
2021/06/12 05:08:38;;;;;;;6.45;4.97;;;18.30;97.50;;;;;;4936824;29;20355;-87
2021/06/12 05:11:06;;;;;;;7.80;6.07;;;18.30;97.20;;;;;;4924883;29;20075;-86
2021/06/12 05:13:34;;;;;;;7.20;5.65;;;18.30;97.40;;;;;;4918765;29;20131;-85
2021/06/12 05:16:01;;;;;;;7.53;5.32;;;18.40;97.60;;;;;;4937146;29;20048;-87
2021/06/12 05:18:33;;;;;;;6.97;5.22;;;18.40;97.60;;;;;;4936984;29;20394;-85
2021/06/12 05:21:00;;;;;;;6.15;5.07;;;18.40;97.40;;;;;;4931893;29;20054;-87
2021/06/12 05:23:29;;;;;;;7.55;5.53;;;18.50;97.20;;;;;;4934636;29;20143;-86
2021/06/12 05:25:56;;;;;;;7.50;5.78;;;18.60;97.20;;;;;;4931323;29;20047;-85
2021/06/12 05:30:57;;;;;;;6.55;5.20;;;18.50;97.20;;;;;;4899710;29;20053;-79
2021/06/12 05:33:24;;;;;;;6.95;5.25;;;18.60;97.10;;;;;;4910164;29;20578;-79
2021/06/12 05:35:52;;;;;;;6.20;5.38;;;18.60;97.30;;;;;;4907862;29;20143;-79
2021/06/12 05:38:19;;;;;;;8.02;5.80;;;18.70;97.50;;;;;;4904700;29;20169;-79
2021/06/12 05:40:46;;;;;;;6.50;5.18;;;18.80;97.30;;;;;;4914079;29;20080;-79
2021/06/12 05:43:12;;;;;;;7.10;5.60;;;18.80;96.70;;;;;;4915551;29;20084;-81
2021/06/12 05:45:39;;;;;;;8.10;5.40;;;18.90;96.60;;;;;;4915882;29;20087;-81
2021/06/12 05:48:08;;;;;;;6.82;4.93;;;18.90;96.50;;;;;;4916608;29;20139;-83
2021/06/12 05:50:34;;;;;;;6.85;4.65;;;19.00;96.70;;;;;;4908748;29;20564;-81
2021/06/12 05:53:01;;;;;;;6.68;5.10;;;19.00;96.90;;;;;;4915644;29;20075;-80
2021/06/12 05:55:28;;;;;;;6.07;4.70;;;19.10;96.70;;;;;;4916463;29;20138;-81
2021/06/12 05:57:54;;;;;;;7.28;5.00;;;19.10;96.90;;;;;;4916648;29;20148;-82
2021/06/12 06:00:23;;;;;;;6.72;4.88;;;19.10;96.50;;;;;;4916776;29;20097;-82
2021/06/12 06:02:49;;;;;;;6.10;5.10;;;19.30;96.70;;;;;;4915258;29;20135;-81
2021/06/12 06:05:17;;;;;;;6.82;5.22;;;19.30;96.90;;;;;;4915965;29;20135;-82
2021/06/12 06:07:44;;;;;;;7.32;5.57;;;19.40;96.60;;;;;;4916452;29;20090;-81
2021/06/12 06:10:11;;;;;;;6.07;5.10;;;19.40;96.50;;;;;;4907832;29;20532;-81
2021/06/12 06:12:38;;;;;;;7.43;5.63;;;19.50;96.70;;;;;;4912225;29;20128;-81
2021/06/12 06:15:10;;;;;;;6.97;5.20;;;19.50;96.70;;;;;;4916371;29;20143;-81
2021/06/12 06:17:38;;;;;;;7.20;5.30;;;19.60;96.70;;;;;;4916288;29;20099;-80
2021/06/12 06:20:09;;;;;;;8.13;4.80;;;19.60;96.40;;;;;;4915720;29;20055;-80
2021/06/12 06:22:37;;;;;;;6.07;5.10;;;19.70;96.40;;;;;;4915429;29;20406;-82
2021/06/12 06:25:06;;;;;;;7.28;5.32;;;19.80;96.50;;;;;;4916351;29;20048;-80
2021/06/12 06:27:33;;;;;;;7.85;5.13;;;19.80;96.50;;;;;;4904664;29;20384;-82
2021/06/12 06:30:00;;;;;;;7.25;5.50;;;19.90;96.00;;;;;;4897484;29;20084;-83
2021/06/12 06:32:26;;;;;;;6.45;5.22;;;19.90;95.80;;;;;;4912836;29;20141;-80
2021/06/12 06:34:53;;;;;;;7.68;5.70;;;19.90;95.70;;;;;;4902089;29;20136;-80
2021/06/12 06:37:20;;;;;;;6.65;5.00;;;19.90;95.60;;;;;;4909728;29;20080;-80
2021/06/12 06:39:47;;;;;;;7.47;5.38;;;19.90;95.60;;;;;;4916234;29;20127;-79
2021/06/12 06:42:14;;;;;;;7.53;5.18;;;20.00;95.90;;;;;;4915422;29;20144;-79
2021/06/12 06:44:41;;;;;;;7.50;5.32;;;20.00;95.60;;;;;;4916213;29;20048;-79
2021/06/12 06:47:08;;;;;;;8.85;5.60;;;20.10;95.60;;;;;;4919247;29;20147;-82
2021/06/12 06:49:35;;;;;;;6.93;4.68;;;20.10;95.60;;;;;;4912573;29;20135;-82
2021/06/12 06:52:03;;;;;;;8.10;5.38;;;20.10;95.40;;;;;;4917535;29;20087;-83
2021/06/12 06:54:29;;;;;;;5.95;4.82;;;20.20;95.30;;;;;;4918592;29;20549;-83
2021/06/12 06:56:57;;;;;;;6.90;4.75;;;20.20;95.10;;;;;;4919371;29;20052;-82
2021/06/12 06:59:24;;;;;;;5.55;4.10;;;20.20;95.20;;;;;;4919461;29;20082;-83
2021/06/12 07:01:51;;;;;;;7.10;5.47;;;20.20;95.40;;;;;;4918797;29;20139;-83
2021/06/12 07:04:17;;;;;;;9.25;6.28;;;20.30;95.20;;;;;;4919105;29;20075;-82
2021/06/12 07:06:44;;;;;;;18.00;10.68;;;20.30;95.20;;;;;;4916760;29;20142;-82
2021/06/12 07:09:10;;;;;;;11.32;7.32;;;20.40;95.20;;;;;;4901874;29;20052;-81
2021/06/12 07:11:37;;;;;;;6.20;4.30;;;20.50;95.10;;;;;;4919670;29;20192;-83
2021/06/12 07:14:05;;;;;;;5.38;4.20;;;20.60;94.60;;;;;;4919076;29;20067;-82
2021/06/12 07:16:31;;;;;;;8.98;4.78;;;20.60;94.30;;;;;;4917226;29;20380;-83
2021/06/12 07:18:58;;;;;;;7.55;4.75;;;20.60;94.40;;;;;;4919166;29;20581;-83
2021/06/12 07:21:25;;;;;;;5.30;3.80;;;20.70;94.50;;;;;;4919021;29;20048;-83
2021/06/12 07:23:51;;;;;;;5.65;4.47;;;20.80;94.60;;;;;;4918873;29;20471;-82
2021/06/12 07:26:18;;;;;;;6.05;4.32;;;20.80;94.10;;;;;;4918986;29;20091;-82
2021/06/12 07:28:45;;;;;;;6.80;4.10;;;21.00;94.00;;;;;;4919056;29;20131;-82
2021/06/12 07:31:13;;;;;;;5.82;4.10;;;21.00;93.80;;;;;;4919192;29;20298;-82
2021/06/12 07:33:39;;;;;;;5.63;4.22;;;21.10;93.80;;;;;;4918647;29;20135;-82
2021/06/12 07:36:06;;;;;;;5.18;3.80;;;21.20;93.90;;;;;;4918937;29;20136;-82
2021/06/12 07:38:33;;;;;;;4.95;3.80;;;21.30;94.00;;;;;;4918709;29;20135;-82
2021/06/12 07:41:00;;;;;;;5.28;3.63;;;21.40;94.00;;;;;;4918895;29;20139;-82
2021/06/12 07:43:26;;;;;;;5.65;4.60;;;21.50;94.00;;;;;;4906889;29;20395;-82
2021/06/12 07:45:53;;;;;;;6.43;4.68;;;21.50;93.50;;;;;;4918028;29;20135;-83
2021/06/12 07:48:21;;;;;;;6.80;4.15;;;21.60;93.50;;;;;;4916082;29;20150;-84
2021/06/12 07:50:48;;;;;;;5.35;4.15;;;21.60;93.60;;;;;;4900161;29;20251;-83
2021/06/12 07:53:14;;;;;;;5.72;3.80;;;21.80;93.50;;;;;;4914938;29;20139;-84
2021/06/12 07:55:42;;;;;;;5.40;4.00;;;21.80;93.40;;;;;;4916320;29;20450;-85
2021/06/12 07:58:08;;;;;;;5.88;4.50;;;21.90;93.30;;;;;;4917701;29;20052;-84
2021/06/12 08:00:35;;;;;;;7.25;5.20;;;22.00;92.70;;;;;;4917173;29;20136;-84
2021/06/12 08:03:01;;;;;;;6.50;4.78;;;22.10;92.90;;;;;;4918093;29;20111;-85
2021/06/12 08:05:29;;;;;;;7.72;5.05;;;22.10;92.40;;;;;;4915726;29;20124;-88
2021/06/12 08:07:56;;;;;;;5.85;4.30;;;22.20;92.80;;;;;;4908189;29;20135;-85
2021/06/12 08:10:23;;;;;;;8.60;5.80;;;22.20;93.00;;;;;;4901994;29;20048;-86
2021/06/12 08:12:49;;;;;;;6.22;4.90;;;22.30;92.60;;;;;;4918604;29;20139;-85
2021/06/12 08:15:17;;;;;;;7.85;4.80;;;22.40;92.70;;;;;;4918366;29;20488;-86
2021/06/12 08:17:44;;;;;;;6.18;5.07;;;22.50;92.70;;;;;;4918661;29;20048;-86
2021/06/12 08:20:12;;;;;;;6.07;4.82;;;22.50;92.80;;;;;;4918292;29;20569;-88
2021/06/12 08:22:41;;;;;;;6.80;4.97;;;22.60;92.70;;;;;;4918342;29;20056;-87
2021/06/12 08:25:10;;;;;;;6.38;5.32;;;22.60;92.80;;;;;;4915469;29;20529;-84
2021/06/12 08:27:36;;;;;;;6.82;5.60;;;22.70;92.60;;;;;;4918236;29;20055;-83
2021/06/12 08:30:07;;;;;;;6.05;4.10;;;22.70;92.80;;;;;;4917061;29;20163;-85
2021/06/12 08:32:34;;;;;;;6.40;5.00;;;22.80;92.80;;;;;;4917667;29;20556;-83
2021/06/12 08:35:01;;;;;;;5.82;4.60;;;22.90;92.60;;;;;;4916441;29;20063;-84
2021/06/12 08:37:28;;;;;;;7.15;5.25;;;23.00;92.90;;;;;;4918376;29;20148;-87
2021/06/12 08:39:55;;;;;;;5.38;4.40;;;23.10;92.60;;;;;;4918141;29;20107;-82
2021/06/12 08:42:25;;;;;;;6.25;4.20;;;23.20;92.20;;;;;;4916765;29;20569;-80
2021/06/12 08:44:54;;;;;;;6.80;4.65;;;23.20;92.10;;;;;;4910684;29;20048;-82
2021/06/12 08:47:20;;;;;;;5.88;3.60;;;23.30;92.30;;;;;;4907145;29;20052;-84
2021/06/12 08:49:47;;;;;;;5.18;4.10;;;23.40;92.40;;;;;;4909108;29;20052;-86
2021/06/12 08:52:14;;;;;;;8.27;4.35;;;23.50;92.50;;;;;;4899770;29;20052;-88
2021/06/12 08:54:44;;;;;;;5.55;4.30;;;23.60;92.60;;;;;;4906344;29;20048;-85
2021/06/12 08:57:13;;;;;;;5.32;4.10;;;23.80;92.30;;;;;;4917772;29;20450;-86
2021/06/12 08:59:39;;;;;;;5.47;4.25;;;23.90;92.10;;;;;;4913142;29;20136;-86
2021/06/12 09:02:07;;;;;;;4.75;3.40;;;24.00;91.90;;;;;;4898793;29;20451;-85
2021/06/12 09:04:42;;;;;;;6.30;3.90;;;24.00;91.60;;;;;;4910573;29;20140;-85
2021/06/12 09:07:25;;;;;;;5.00;3.75;;;24.10;91.20;;;;;;4910561;29;20088;-86
2021/06/12 09:09:53;;;;;;;5.95;4.10;;;24.30;91.10;;;;;;4898136;29;20491;-85
2021/06/12 09:12:21;;;;;;;5.78;3.63;;;24.40;90.90;;;;;;4903335;29;20055;-86
2021/06/12 09:15:08;;;;;;;4.88;3.85;;;24.50;90.30;;;;;;4917398;29;20472;-86
2021/06/12 09:17:43;;;;;;;5.78;4.07;;;24.60;90.10;;;;;;4905456;29;20084;-85
2021/06/12 09:20:11;;;;;;;6.25;4.20;;;24.80;89.40;;;;;;4898272;29;20084;-80
2021/06/12 09:22:38;;;;;;;6.63;4.45;;;24.80;89.10;;;;;;4902823;29;20048;-80
2021/06/12 09:25:06;;;;;;;4.60;3.58;;;24.80;88.80;;;;;;4909691;29;20079;-77
2021/06/12 09:27:34;;;;;;;4.93;3.72;;;24.80;88.60;;;;;;4910340;29;20052;-84
2021/06/12 09:30:04;;;;;;;6.45;3.83;;;24.80;88.10;;;;;;4917076;29;20088;-83
2021/06/12 09:32:33;;;;;;;5.38;3.72;;;24.80;88.20;;;;;;4916897;29;20048;-83
2021/06/12 09:35:11;;;;;;;4.53;3.40;;;24.80;87.70;;;;;;4913314;29;20139;-82
2021/06/12 09:37:40;;;;;;;6.85;3.88;;;24.80;87.50;;;;;;4903824;29;20048;-81
2021/06/12 09:40:10;;;;;;;4.20;3.15;;;24.90;86.70;;;;;;4901459;29;20056;-82
2021/06/12 09:42:44;;;;;;;6.15;3.70;;;24.90;87.30;;;;;;4916788;29;20056;-82
2021/06/12 09:45:13;;;;;;;6.10;4.18;;;24.90;87.30;;;;;;4917132;29;20132;-83
2021/06/12 09:47:40;;;;;;;4.65;3.63;;;24.90;88.30;;;;;;4916622;29;20052;-82
2021/06/12 09:50:09;;;;;;;4.43;3.60;;;24.90;89.00;;;;;;4916966;29;20059;-82
2021/06/12 09:52:45;;;;;;;5.18;4.10;;;24.90;89.10;;;;;;4916683;29;20052;-82
2021/06/12 09:55:22;;;;;;;5.30;3.85;;;25.00;89.00;;;;;;4916645;29;20087;-82
2021/06/12 09:57:52;;;;;;;6.35;4.80;;;25.00;89.60;;;;;;4916807;29;20514;-82
2021/06/12 10:00:34;;;;;;;7.30;4.90;;;25.00;89.60;;;;;;4916661;29;20188;-82
2021/06/12 10:03:01;;;;;;;5.47;4.07;;;25.10;89.00;;;;;;4916552;29;20056;-82
2021/06/12 10:05:28;;;;;;;6.20;4.53;;;25.10;89.20;;;;;;4916645;29;20104;-82
2021/06/12 10:07:55;;;;;;;5.22;3.88;;;25.10;89.50;;;;;;4916709;29;20285;-82
2021/06/12 10:10:23;;;;;;;5.53;3.80;;;25.10;89.70;;;;;;4916487;29;20104;-82
2021/06/12 10:12:51;;;;;;;6.35;3.83;;;25.20;89.60;;;;;;4916658;29;20048;-82
2021/06/12 10:15:19;;;;;;;5.15;3.30;;;25.30;89.80;;;;;;4916609;29;20485;-82
2021/06/12 10:17:48;;;;;;;4.65;3.28;;;25.30;89.80;;;;;;4916763;29;20250;-82
2021/06/12 10:20:18;;;;;;;4.03;2.90;;;25.30;89.40;;;;;;4918281;29;20143;-82
2021/06/12 10:22:47;;;;;;;4.57;3.33;;;25.40;89.30;;;;;;4920305;29;20510;-82
2021/06/12 10:25:16;;;;;;;5.07;3.25;;;25.50;89.20;;;;;;4920240;29;20091;-82
2021/06/12 10:27:43;;;;;;;4.03;2.63;;;25.60;89.30;;;;;;4920214;29;20052;-82
2021/06/12 10:30:15;;;;;;;4.05;2.42;;;25.70;87.90;;;;;;4920026;29;20463;-82
2021/06/12 10:32:45;;;;;;;3.58;2.30;;;25.80;86.90;;;;;;4920369;29;20139;-82
2021/06/12 10:35:18;;;;;;;5.07;2.35;;;25.90;85.50;;;;;;4920033;29;20497;-83
2021/06/12 10:38:02;;;;;;;4.70;2.45;;;26.00;83.70;;;;;;4920063;29;20517;-82
2021/06/12 10:40:42;;;;;;;3.90;1.98;;;26.00;83.10;;;;;;4920109;29;20048;-82
2021/06/12 10:43:13;;;;;;;3.10;2.00;;;26.10;83.50;;;;;;4920002;29;20154;-82
2021/06/12 10:45:42;;;;;;;3.17;1.98;;;26.10;83.20;;;;;;4920019;29;20091;-83
2021/06/12 10:48:09;;;;;;;3.60;2.20;;;26.20;81.40;;;;;;4919636;29;20498;-82
2021/06/12 10:50:45;;;;;;;3.55;1.85;;;26.20;80.90;;;;;;4919969;29;20154;-83
2021/06/12 10:53:21;;;;;;;4.32;2.00;;;26.20;80.30;;;;;;4914040;29;20104;-81
2021/06/12 10:55:50;;;;;;;5.68;2.40;;;26.20;79.80;;;;;;4912935;29;20127;-82
2021/06/12 10:58:48;;;;;;;4.13;2.20;;;26.20;75.70;;;;;;4909421;29;20048;-81
2021/06/12 11:01:19;;;;;;;4.88;2.47;;;26.20;74.70;;;;;;4899159;29;20048;-80
2021/06/12 11:03:53;;;;;;;3.85;2.20;;;26.20;74.30;;;;;;4918185;29;20127;-83
2021/06/12 11:06:37;;;;;;;3.58;2.22;;;26.20;74.10;;;;;;4903504;29;20084;-82
2021/06/12 11:09:31;;;;;;;;;;;26.20;72.10;;;;;;4912378;29;20056;-82
2021/06/12 11:12:00;;;;;;;4.70;2.30;;;26.20;71.00;;;;;;4908431;29;20489;-82
2021/06/12 11:14:34;;;;;;;4.20;2.50;;;26.30;70.10;;;;;;4896532;29;20130;-82
2021/06/12 11:17:18;;;;;;;4.20;2.20;;;26.30;69.40;;;;;;4903756;29;20451;-83
2021/06/12 11:19:51;;;;;;;3.35;2.20;;;26.30;66.80;;;;;;4909294;29;20130;-81
2021/06/12 11:22:32;;;;;;;3.15;1.92;;;26.40;67.70;;;;;;4923798;29;20076;-81
2021/06/12 11:25:02;;;;;;;3.92;2.10;;;26.50;68.70;;;;;;4912317;29;20052;-82
2021/06/12 11:27:33;;;;;;;4.18;2.22;;;26.50;67.30;;;;;;4910501;29;20508;-81
2021/06/12 11:30:23;;;;;;;4.05;2.30;;;26.50;67.30;;;;;;4904439;29;20099;-81
2021/06/12 11:33:12;;;;;;;3.15;2.10;;;26.60;68.20;;;;;;4900315;29;20654;-80
2021/06/12 11:35:51;;;;;;;4.63;2.58;;;26.60;67.00;;;;;;4903858;29;20109;-80
2021/06/12 11:38:29;;;;;;;3.45;2.10;;;26.60;68.00;;;;;;4903938;29;20075;-81
2021/06/12 11:41:02;;;;;;;5.75;2.20;;;26.70;66.60;;;;;;4909789;29;20104;-81
2021/06/12 11:43:35;;;;;;;3.35;2.10;;;26.70;67.80;;;;;;4905870;29;20059;-81
2021/06/12 11:46:04;;;;;;;3.53;2.20;;;26.80;67.00;;;;;;4913504;29;20048;-81
2021/06/12 11:48:38;;;;;;;3.92;2.25;;;26.80;63.00;;;;;;4914229;29;20061;-81
2021/06/12 11:51:16;;;;;;;3.42;2.00;;;26.90;63.40;;;;;;4907458;29;20479;-81
2021/06/12 11:53:45;;;;;;;3.97;1.98;;;27.00;63.40;;;;;;4908010;29;20469;-81
2021/06/12 11:56:11;;;;;;;4.25;1.80;;;26.90;63.00;;;;;;4898589;29;20052;-83
2021/06/12 11:58:56;;;;;;;3.53;1.60;;;27.00;63.30;;;;;;4910834;29;20075;-81
2021/06/12 12:01:45;;;;;;;3.10;1.90;;;27.00;64.10;;;;;;4905486;29;20088;-81
2021/06/12 12:04:16;;;;;;;4.38;1.63;;;27.00;64.40;;;;;;4899264;29;20110;-82
2021/06/12 12:06:47;;;;;;;3.83;1.83;;;26.90;62.00;;;;;;4913706;29;20509;-83
2021/06/12 12:09:26;;;;;;;2.92;1.80;;;26.90;61.90;;;;;;4913594;29;20131;-83
2021/06/12 12:11:57;;;;;;;4.10;1.90;;;26.90;61.60;;;;;;4908316;29;20056;-84
2021/06/12 12:14:38;;;;;;;4.07;1.95;;;27.00;62.70;;;;;;4907030;29;20052;-83
2021/06/12 12:17:06;;;;;;;4.05;1.70;;;27.00;59.10;;;;;;4902482;29;20100;-84
2021/06/12 12:19:35;;;;;;;3.20;1.90;;;27.10;59.70;;;;;;4901739;29;20067;-83
2021/06/12 12:22:03;;;;;;;2.70;1.60;;;27.10;58.90;;;;;;4905254;29;20080;-83
2021/06/12 12:24:32;;;;;;;3.28;2.03;;;27.10;59.40;;;;;;4904845;29;20079;-83
2021/06/12 12:27:04;;;;;;;3.30;1.80;;;27.10;60.30;;;;;;4908168;29;20051;-82
2021/06/12 12:29:33;;;;;;;2.90;1.80;;;27.20;60.90;;;;;;4933152;29;20139;-83
2021/06/12 12:32:01;;;;;;;3.58;1.77;;;27.30;58.90;;;;;;4911142;29;20060;-83
2021/06/12 12:34:37;;;;;;;3.42;1.70;;;27.20;59.00;;;;;;4909411;29;20047;-83
2021/06/12 12:37:05;;;;;;;2.83;1.50;;;27.20;58.60;;;;;;4902956;29;20056;-83
2021/06/12 12:39:40;;;;;;;3.00;1.63;;;27.20;59.00;;;;;;4907253;29;20104;-83
2021/06/12 12:42:08;;;;;;;3.75;1.83;;;27.20;56.20;;;;;;4913572;29;20147;-82
2021/06/12 12:44:35;;;;;;;4.28;1.80;;;27.20;57.40;;;;;;4917072;29;20131;-82
2021/06/12 12:47:02;;;;;;;3.60;1.90;;;27.10;57.60;;;;;;4910583;29;20808;-82
2021/06/12 12:49:31;;;;;;;4.35;2.00;;;27.10;57.20;;;;;;4909262;29;20130;-82
2021/06/12 12:52:01;;;;;;;4.05;1.60;;;27.00;56.90;;;;;;4903496;29;20131;-82
2021/06/12 12:54:30;;;;;;;2.85;1.70;;;27.00;57.10;;;;;;4913913;29;20497;-83
2021/06/12 12:56:59;;;;;;;3.05;1.60;;;27.00;57.80;;;;;;4905977;29;20138;-82
2021/06/12 12:59:38;;;;;;;3.28;1.50;;;27.00;56.60;;;;;;4916822;29;20056;-82
2021/06/12 13:02:07;;;;;;;4.15;1.50;;;27.00;55.80;;;;;;4905762;29;20053;-83
2021/06/12 13:04:36;;;;;;;3.45;1.45;;;27.00;56.50;;;;;;4909579;29;20058;-83
2021/06/12 13:07:11;;;;;;;3.35;1.80;;;27.00;56.60;;;;;;4909916;29;20139;-84
2021/06/12 13:09:40;;;;;;;3.17;1.55;;;27.10;56.50;;;;;;4908401;29;20183;-84
2021/06/12 13:12:11;;;;;;;2.95;1.50;;;27.00;56.10;;;;;;4908397;29;20473;-84
2021/06/12 13:14:39;;;;;;;2.90;1.40;;;27.10;55.80;;;;;;4908554;29;20128;-86
2021/06/12 13:17:10;;;;;;;2.80;1.52;;;27.10;56.30;;;;;;4911237;29;20414;-84
2021/06/12 13:19:40;;;;;;;3.30;1.42;;;27.30;56.40;;;;;;4912160;29;20055;-84
2021/06/12 13:22:23;;;;;;;2.85;1.52;;;27.50;57.10;;;;;;4901756;29;20091;-82
2021/06/12 13:24:55;;;;;;;5.68;1.70;;;27.60;57.00;;;;;;4909154;29;20053;-81
2021/06/12 13:27:37;;;;;;;2.92;1.48;;;27.70;56.80;;;;;;4906929;29;20211;-82
2021/06/12 13:30:07;;;;;;;4.00;1.80;;;27.80;57.70;;;;;;4910368;29;20084;-81
2021/06/12 13:32:33;;;;;;;4.90;1.58;;;27.90;57.40;;;;;;4912558;29;20183;-82
2021/06/12 13:35:01;;;;;;;3.70;1.58;;;28.00;56.30;;;;;;4908001;29;20072;-81
2021/06/12 13:37:29;;;;;;;4.65;1.55;;;28.10;55.70;;;;;;4910092;29;20132;-80
2021/06/12 13:39:59;;;;;;;2.40;1.30;;;28.10;56.80;;;;;;4910428;29;20131;-81
2021/06/12 13:42:33;;;;;;;2.65;1.30;;;28.20;55.70;;;;;;4903262;29;20109;-80
2021/06/12 13:45:08;;;;;;;4.88;1.38;;;28.30;55.00;;;;;;4902638;29;20051;-81
2021/06/12 13:47:35;;;;;;;2.95;1.30;;;28.30;54.20;;;;;;4908595;29;20127;-81
2021/06/12 13:50:04;;;;;;;2.60;1.10;;;28.30;52.50;;;;;;4901205;29;20264;-81
2021/06/12 13:52:33;;;;;;;4.18;1.50;;;28.30;52.50;;;;;;4908822;29;20080;-80
2021/06/12 13:55:00;;;;;;;2.72;1.30;;;28.30;52.60;;;;;;4911234;29;20131;-81
2021/06/12 13:57:26;;;;;;;4.43;1.80;;;28.30;52.90;;;;;;4900694;29;20143;-81
2021/06/12 13:59:53;;;;;;;3.70;1.25;;;28.30;53.80;;;;;;4914994;29;20135;-81
2021/06/12 14:02:19;;;;;;;4.45;1.15;;;28.40;53.20;;;;;;4910487;29;20131;-81
2021/06/12 14:04:46;;;;;;;3.03;1.20;;;28.40;52.60;;;;;;4905281;29;20135;-82
2021/06/12 14:07:15;;;;;;;2.13;1.00;;;28.40;51.90;;;;;;4909264;29;20044;-81
2021/06/12 14:09:43;;;;;;;3.30;1.35;;;28.60;52.30;;;;;;4915924;29;20044;-81
2021/06/12 14:12:10;;;;;;;3.17;1.20;;;28.70;52.60;;;;;;4915757;29;20058;-81
2021/06/12 14:14:37;;;;;;;2.65;1.17;;;28.90;52.80;;;;;;4908419;29;20044;-81
2021/06/12 14:17:06;;;;;;;2.30;1.00;;;29.00;52.30;;;;;;4915229;29;20190;-81
2021/06/12 14:19:33;;;;;;;2.30;1.00;;;29.10;52.90;;;;;;4915876;29;20090;-82
2021/06/12 14:22:00;;;;;;;2.50;1.30;;;29.20;51.70;;;;;;4915591;29;20198;-82
2021/06/12 14:24:27;;;;;;;4.80;1.23;;;29.20;52.00;;;;;;4915207;29;20132;-82
2021/06/12 14:26:55;;;;;;;2.40;1.08;;;29.30;51.50;;;;;;4915920;29;20585;-82
2021/06/12 14:29:24;;;;;;;3.22;1.20;;;29.30;51.20;;;;;;4915069;29;20052;-81
2021/06/12 14:31:50;;;;;;;2.88;1.00;;;29.30;50.10;;;;;;4915691;29;20497;-82
2021/06/12 14:34:17;;;;;;;3.28;1.48;;;29.30;50.10;;;;;;4915039;29;20127;-81
2021/06/12 14:36:44;;;;;;;3.42;1.80;;;29.30;51.20;;;;;;4915717;29;20537;-82
2021/06/12 14:39:11;;;;;;;4.72;1.10;;;29.30;51.80;;;;;;4912773;29;20528;-82
2021/06/12 14:41:39;;;;;;;2.17;1.00;;;29.80;50.70;;;;;;4901091;29;20048;-82
2021/06/12 14:44:08;;;;;;;2.63;1.23;;;29.40;49.70;;;;;;4907964;29;20138;-81
2021/06/12 14:46:34;;;;;;;2.25;0.90;;;29.40;50.30;;;;;;4914817;29;20184;-80
2021/06/12 14:49:01;;;;;;;2.58;1.23;;;29.50;49.60;;;;;;4915623;29;20464;-79
2021/06/12 14:51:29;;;;;;;5.18;1.35;;;29.50;49.60;;;;;;4915119;29;20049;-82
2021/06/12 14:53:55;;;;;;;2.20;1.00;;;29.60;50.00;;;;;;4915418;29;20490;-79
2021/06/12 14:56:22;;;;;;;1.95;0.90;;;29.70;48.90;;;;;;4915583;29;20568;-80
2021/06/12 14:58:49;;;;;;;3.20;0.93;;;29.70;47.40;;;;;;4916071;29;20051;-79
2021/06/12 15:01:16;;;;;;;3.30;1.15;;;29.70;47.90;;;;;;4914513;29;20080;-81
2021/06/12 15:03:43;;;;;;;2.65;1.00;;;29.80;49.20;;;;;;4915804;29;20501;-80
2021/06/12 15:06:11;;;;;;;2.58;1.10;;;29.80;49.00;;;;;;4916234;29;20160;-79
2021/06/12 15:08:37;;;;;;;2.13;1.00;;;30.00;52.00;;;;;;4910825;29;20049;-79
2021/06/12 15:11:04;;;;;;;2.72;1.00;;;30.00;53.90;;;;;;4917952;29;20072;-80
2021/06/12 15:13:30;;;;;;;3.20;1.10;;;30.00;48.90;;;;;;4919028;29;20048;-79
2021/06/12 15:15:57;;;;;;;2.90;1.40;;;30.00;47.40;;;;;;4918942;29;20451;-78
2021/06/12 15:18:27;;;;;;;4.07;1.30;;;30.00;48.10;;;;;;4918134;29;20135;-77
2021/06/12 15:20:54;;;;;;;2.47;1.00;;;29.80;48.10;;;;;;4916960;29;20143;-81
2021/06/12 15:23:21;;;;;;;2.65;1.00;;;29.60;48.20;;;;;;4917936;29;20055;-79
2021/06/12 15:25:48;;;;;;;2.55;0.90;;;29.60;48.30;;;;;;4917708;29;20040;-79
2021/06/12 15:28:14;;;;;;;2.45;1.10;;;29.60;48.20;;;;;;4917540;29;20131;-80
2021/06/12 15:30:42;;;;;;;3.70;1.70;;;29.60;49.00;;;;;;4917644;29;20060;-79
2021/06/12 15:33:11;;;;;;;2.30;1.00;;;29.60;50.00;;;;;;4916894;29;20052;-80
2021/06/12 15:35:40;;;;;;;3.78;1.02;;;29.60;47.70;;;;;;4909626;29;20048;-80
2021/06/12 15:38:07;;;;;;;2.25;0.80;;;29.60;48.70;;;;;;4916713;29;20051;-81
2021/06/12 15:40:34;;;;;;;2.30;0.85;;;29.60;47.30;;;;;;4917341;29;20439;-81
2021/06/12 15:43:01;;;;;;;1.90;0.80;;;29.60;47.00;;;;;;4917450;29;20593;-81
2021/06/12 15:45:28;;;;;;;1.52;0.80;;;29.60;46.30;;;;;;4910086;29;20103;-81
2021/06/12 15:47:55;;;;;;;2.05;0.63;;;29.60;46.50;;;;;;4917721;29;20049;-81
2021/06/12 15:50:21;;;;;;;2.63;0.73;;;29.60;45.30;;;;;;4916769;29;20084;-81
2021/06/12 15:52:49;;;;;;;1.70;0.70;;;29.60;45.00;;;;;;4914766;29;20131;-80
2021/06/12 15:55:17;;;;;;;2.00;0.60;;;29.60;45.50;;;;;;4903704;29;20132;-80
2021/06/12 15:57:44;;;;;;;1.38;0.60;;;29.60;45.80;;;;;;4910400;29;20096;-80
2021/06/12 16:00:13;;;;;;;1.42;0.60;;;29.60;44.80;;;;;;4909043;29;20059;-82
2021/06/12 16:02:40;;;;;;;1.00;0.50;;;29.50;46.40;;;;;;4907050;29;20060;-79
2021/06/12 16:05:07;;;;;;;1.58;0.40;;;29.50;46.00;;;;;;4912835;29;20091;-79
2021/06/12 16:07:34;;;;;;;2.50;0.60;;;29.40;46.10;;;;;;4912625;29;20056;-80
2021/06/12 16:10:03;;;;;;;2.33;0.60;;;29.40;46.40;;;;;;4907080;29;20139;-79
2021/06/12 16:12:30;;;;;;;1.45;0.60;;;29.40;46.50;;;;;;4914226;29;20052;-79
2021/06/12 16:14:56;;;;;;;6.28;0.90;;;29.40;46.90;;;;;;4907139;29;20055;-79
2021/06/12 16:17:23;;;;;;;1.50;0.57;;;29.40;46.50;;;;;;4902766;29;20447;-77
2021/06/12 16:19:50;;;;;;;1.88;0.70;;;29.40;47.30;;;;;;4909897;29;20150;-78
2021/06/12 16:22:17;;;;;;;1.77;0.73;;;29.40;47.90;;;;;;4908143;29;20077;-77
2021/06/12 16:24:43;;;;;;;2.15;0.63;;;29.40;48.20;;;;;;4906688;29;20135;-78
2021/06/12 16:27:11;;;;;;;2.05;0.70;;;29.40;48.60;;;;;;4907211;29;20084;-79
2021/06/12 16:29:37;;;;;;;3.00;0.70;;;29.30;48.50;;;;;;4911786;29;20523;-79
2021/06/12 16:32:05;;;;;;;1.60;0.50;;;29.30;48.80;;;;;;4912758;29;20123;-80
2021/06/12 16:34:32;;;;;;;1.08;0.70;;;29.30;49.20;;;;;;4893981;29;20054;-79
2021/06/12 16:36:59;;;;;;;0.88;0.50;;;29.20;49.20;;;;;;4909966;29;20140;-78
2021/06/12 16:39:25;;;;;;;2.00;0.68;;;29.10;49.70;;;;;;4906822;29;20083;-79
2021/06/12 16:41:52;;;;;;;0.82;0.50;;;29.10;49.40;;;;;;4906531;29;20505;-82
2021/06/12 16:44:20;;;;;;;1.30;0.60;;;29.20;50.10;;;;;;4912467;29;20084;-80
2021/06/12 16:46:46;;;;;;;1.35;0.50;;;29.20;49.10;;;;;;4900992;29;20108;-78
2021/06/12 16:49:13;;;;;;;1.77;0.50;;;29.20;49.10;;;;;;4907376;29;20131;-79
2021/06/12 16:51:40;;;;;;;1.13;0.60;;;29.20;49.40;;;;;;4912749;29;20048;-80
2021/06/12 16:54:15;;;;;;;3.05;1.08;;;29.10;49.40;;;;;;4909193;29;20052;-78
2021/06/12 16:57:06;;;;;;;1.52;0.40;;;29.10;49.60;;;;;;4906094;29;20052;-80
2021/06/12 16:59:34;;;;;;;1.60;0.70;;;29.00;49.70;;;;;;4903437;29;20040;-78
2021/06/12 17:02:01;;;;;;;1.30;0.60;;;29.00;49.80;;;;;;4909050;29;20142;-78
2021/06/12 17:04:27;;;;;;;4.68;0.70;;;29.00;50.10;;;;;;4902655;29;20478;-78
2021/06/12 17:06:54;;;;;;;1.23;0.50;;;29.10;50.50;;;;;;4910221;29;20167;-79
2021/06/12 17:09:21;;;;;;;3.45;0.55;;;29.10;50.40;;;;;;4914060;29;20190;-78
2021/06/12 17:11:48;;;;;;;0.98;0.43;;;29.10;50.00;;;;;;4909448;29;20048;-80
2021/06/12 17:14:15;;;;;;;1.23;0.52;;;29.10;50.50;;;;;;4903316;29;20486;-80
2021/06/12 17:16:43;;;;;;;2.20;0.57;;;29.00;50.00;;;;;;4905312;29;20076;-78
2021/06/12 17:19:09;;;;;;;1.05;0.50;;;29.00;49.10;;;;;;4906248;29;20099;-80
2021/06/12 17:21:36;;;;;;;1.42;0.38;;;28.90;48.80;;;;;;4910966;29;20466;-79
2021/06/12 17:24:04;;;;;;;1.55;0.80;;;28.70;49.20;;;;;;4906379;29;20052;-81
2021/06/12 17:26:31;;;;;;;3.85;0.60;;;28.60;49.90;;;;;;4905716;29;20048;-82
2021/06/12 17:28:58;;;;;;;2.75;0.65;;;28.50;49.70;;;;;;4904773;29;20053;-82
2021/06/12 17:31:25;;;;;;;0.93;0.60;;;28.50;50.40;;;;;;4907832;29;20629;-83
2021/06/12 17:33:53;;;;;;;2.58;0.68;;;28.30;51.10;;;;;;4904292;29;20048;-83
2021/06/12 17:36:19;;;;;;;2.53;0.70;;;28.30;50.80;;;;;;4907839;29;20053;-84
2021/06/12 17:38:46;;;;;;;1.30;0.60;;;28.20;51.00;;;;;;4914859;29;20055;-83
2021/06/12 17:41:13;;;;;;;3.78;0.77;;;28.10;50.60;;;;;;4914937;29;20060;-85
2021/06/12 17:43:42;;;;;;;1.45;0.80;;;28.00;51.20;;;;;;4914932;29;20138;-85
2021/06/12 17:46:09;;;;;;;2.17;0.70;;;27.90;51.20;;;;;;4915504;29;20087;-83
2021/06/12 17:48:35;;;;;;;2.70;0.70;;;27.80;51.80;;;;;;4904424;29;20127;-83
2021/06/12 17:51:04;;;;;;;2.05;0.93;;;27.70;52.00;;;;;;4917767;29;20055;-83
2021/06/12 17:53:32;;;;;;;2.70;0.95;;;27.60;52.00;;;;;;4924056;29;20517;-82